createdAt,value
2018-04-30T00:00:45.334Z,100444.21
2018-04-30T00:03:15.495Z,100446.53
2018-04-30T00:05:42.233Z,100441.48
2018-04-30T00:08:08.845Z,100448.72
2018-04-30T00:10:35.529Z,100445.83
2018-04-30T00:13:08.738Z,100447.22
2018-04-30T00:15:35.596Z,100451.03
2018-04-30T00:18:02.264Z,100446.75
2018-04-30T00:20:28.866Z,100446.50
2018-04-30T00:22:55.516Z,100446.50
2018-04-30T00:25:26.081Z,100441.88
2018-04-30T00:27:52.751Z,100440.26
2018-04-30T00:30:19.448Z,100435.30
2018-04-30T00:32:45.961Z,100434.60
2018-04-30T00:35:16.447Z,100431.91
2018-04-30T00:37:43.461Z,100425.25
2018-04-30T00:40:10.193Z,100425.14
2018-04-30T00:42:36.804Z,100422.00
2018-04-30T00:45:04.642Z,100416.91
2018-04-30T00:47:31.363Z,100418.80
2018-04-30T00:49:58.116Z,100417.67
2018-04-30T00:52:24.861Z,100417.23
2018-04-30T00:54:59.318Z,100405.61
2018-04-30T00:57:26.083Z,100402.55
2018-04-30T00:59:53.011Z,100409.36
2018-04-30T01:02:19.720Z,100411.83
2018-04-30T01:04:47.493Z,100405.19
2018-04-30T01:07:14.206Z,100404.03
2018-04-30T01:09:40.813Z,100398.77
2018-04-30T01:12:07.530Z,100396.92
2018-04-30T01:14:38.092Z,100388.62
2018-04-30T01:17:05.108Z,100387.47
2018-04-30T01:19:32.266Z,100383.75
2018-04-30T01:22:04.817Z,100379.87
2018-04-30T01:24:32.512Z,100379.63
2018-04-30T01:26:59.069Z,100385.48
2018-04-30T01:29:25.767Z,100374.45
2018-04-30T01:31:52.376Z,100378.61
2018-04-30T01:34:19.271Z,100373.45
2018-04-30T01:36:45.811Z,100379.07
2018-04-30T01:39:12.482Z,100364.20
2018-04-30T01:41:39.104Z,100363.08
2018-04-30T01:44:06.885Z,100361.25
2018-04-30T01:46:33.542Z,100362.19
2018-04-30T01:49:00.201Z,100368.20
2018-04-30T01:51:26.769Z,100360.75
2018-04-30T01:53:58.185Z,100358.58
2018-04-30T01:56:24.945Z,100355.48
2018-04-30T01:58:51.620Z,100361.17
2018-04-30T02:01:18.182Z,100358.87
2018-04-30T02:03:48.833Z,100358.34
2018-04-30T02:06:15.538Z,100363.05
2018-04-30T02:08:42.156Z,100360.10
2018-04-30T02:11:08.903Z,100357.91
2018-04-30T02:13:36.841Z,100351.97
2018-04-30T02:16:03.421Z,100351.97
2018-04-30T02:18:29.911Z,100348.99
2018-04-30T02:20:56.635Z,100347.05
2018-04-30T02:23:24.908Z,100350.27
2018-04-30T02:25:51.641Z,100360.23
2018-04-30T02:28:18.361Z,100351.83
2018-04-30T02:30:45.037Z,100357.98
2018-04-30T02:33:12.353Z,100349.10
2018-04-30T02:35:39.072Z,100351.89
2018-04-30T02:38:05.655Z,100351.31
2018-04-30T02:40:32.145Z,100350.65
2018-04-30T02:43:02.357Z,100354.09
2018-04-30T02:45:28.913Z,100346.72
2018-04-30T02:47:55.637Z,100353.66
2018-04-30T02:50:22.235Z,100350.59
2018-04-30T02:52:48.790Z,100350.71
2018-04-30T02:55:15.576Z,100351.77
2018-04-30T02:57:42.225Z,100355.73
2018-04-30T03:00:08.905Z,100349.59
2018-04-30T03:02:35.521Z,100352.33
2018-04-30T03:05:02.107Z,100351.72
2018-04-30T03:07:28.696Z,100350.59
2018-04-30T03:09:55.372Z,100350.59
2018-04-30T03:12:22.522Z,100351.06
2018-04-30T03:14:52.583Z,100354.33
2018-04-30T03:17:19.333Z,100352.67
2018-04-30T03:19:45.996Z,100359.00
2018-04-30T03:22:12.594Z,100357.75
2018-04-30T03:24:40.193Z,100356.66
2018-04-30T03:27:06.826Z,100357.19
2018-04-30T03:29:34.512Z,100357.98
2018-04-30T03:32:01.306Z,100357.26
2018-04-30T03:34:31.590Z,100360.70
2018-04-30T03:36:58.302Z,100358.57
2018-04-30T03:39:25.029Z,100363.25
2018-04-30T03:41:51.751Z,100363.02
2018-04-30T03:44:19.690Z,100367.58
2018-04-30T03:46:46.708Z,100365.33
2018-04-30T03:49:13.423Z,100364.75
2018-04-30T03:51:40.051Z,100364.85
2018-04-30T03:54:19.726Z,100368.75
2018-04-30T03:56:46.394Z,100365.76
2018-04-30T03:59:13.034Z,100365.12
2018-04-30T04:01:52.315Z,100368.97
2018-04-30T04:04:31.153Z,100367.30
2018-04-30T04:06:57.874Z,100361.26
2018-04-30T04:09:24.669Z,100369.19
2018-04-30T04:11:51.341Z,100363.55
2018-04-30T04:14:19.429Z,100359.06
2018-04-30T04:16:46.245Z,100357.55
2018-04-30T04:19:12.922Z,100357.94
2018-04-30T04:21:39.595Z,100368.14
2018-04-30T04:24:06.464Z,100364.55
2018-04-30T04:26:33.122Z,100365.02
2018-04-30T04:28:59.863Z,100364.19
2018-04-30T04:31:26.537Z,100359.97
2018-04-30T04:33:56.946Z,100363.92
2018-04-30T04:36:23.617Z,100362.09
2018-04-30T04:38:50.236Z,100361.92
2018-04-30T04:41:16.900Z,100362.77
2018-04-30T04:43:43.771Z,100361.83
2018-04-30T04:46:10.460Z,100364.97
2018-04-30T04:48:36.875Z,100361.59
2018-04-30T04:51:03.522Z,100362.78
2018-04-30T04:53:36.157Z,100361.08
2018-04-30T04:56:02.971Z,100361.31
2018-04-30T04:58:29.639Z,100357.14
2018-04-30T05:00:56.339Z,100359.30
2018-04-30T05:03:26.000Z,100365.77
2018-04-30T05:05:52.652Z,100355.22
2018-04-30T05:08:19.413Z,100359.52
2018-04-30T05:10:46.464Z,100362.25
2018-04-30T05:13:13.799Z,100362.44
2018-04-30T05:15:40.487Z,100354.65
2018-04-30T05:18:07.121Z,100354.84
2018-04-30T05:20:34.118Z,100346.84
2018-04-30T05:23:04.619Z,100357.51
2018-04-30T05:25:31.130Z,100360.29
2018-04-30T05:27:58.665Z,100359.08
2018-04-30T05:30:25.377Z,100359.37
2018-04-30T05:32:56.739Z,100354.70
2018-04-30T05:35:23.369Z,100364.23
2018-04-30T05:37:50.081Z,100360.53
2018-04-30T05:40:18.234Z,100359.01
2018-04-30T05:42:48.865Z,100361.84
2018-04-30T05:45:15.567Z,100365.20
2018-04-30T05:47:42.299Z,100360.33
2018-04-30T05:50:08.889Z,100354.52
2018-04-30T05:52:36.986Z,100351.30
2018-04-30T05:55:03.585Z,100356.66
2018-04-30T05:57:30.404Z,100357.43
2018-04-30T05:59:57.207Z,100352.30
2018-04-30T06:02:33.997Z,100352.96
2018-04-30T06:05:00.770Z,100353.48
2018-04-30T06:07:27.609Z,100345.50
2018-04-30T06:09:55.168Z,100348.69
2018-04-30T06:12:29.669Z,100348.55
2018-04-30T06:14:56.349Z,100356.94
2018-04-30T06:17:23.142Z,100351.91
2018-04-30T06:19:50.258Z,100354.84
2018-04-30T06:22:18.205Z,100343.26
2018-04-30T06:24:44.897Z,100340.34
2018-04-30T06:27:11.862Z,100354.27
2018-04-30T06:29:38.529Z,100355.06
2018-04-30T06:32:05.085Z,100366.00
2018-04-30T06:34:32.222Z,100372.73
2018-04-30T06:36:58.893Z,100365.87
2018-04-30T06:39:25.470Z,100367.02
2018-04-30T06:41:53.295Z,100364.70
2018-04-30T06:44:25.267Z,100368.03
2018-04-30T06:46:51.789Z,100369.78
2018-04-30T06:49:18.858Z,100374.30
2018-04-30T06:51:45.410Z,100367.94
2018-04-30T06:54:12.301Z,100368.27
2018-04-30T06:56:38.932Z,100361.84
2018-04-30T06:59:05.580Z,100362.63
2018-04-30T07:01:32.925Z,100361.77
2018-04-30T07:04:00.279Z,100366.80
2018-04-30T07:06:27.105Z,100363.38
2018-04-30T07:08:53.646Z,100360.81
2018-04-30T07:11:20.461Z,100360.16
2018-04-30T07:13:51.203Z,100358.61
2018-04-30T07:16:17.971Z,100352.50
2018-04-30T07:18:44.524Z,100354.23
2018-04-30T07:21:11.336Z,100349.30
2018-04-30T07:23:43.959Z,100345.97
2018-04-30T07:26:10.717Z,100347.33
2018-04-30T07:28:37.785Z,100350.58
2018-04-30T07:31:05.731Z,100351.84
2018-04-30T07:33:32.321Z,100352.17
2018-04-30T07:35:59.226Z,100346.02
2018-04-30T07:38:25.797Z,100340.96
2018-04-30T07:40:52.540Z,100340.09
2018-04-30T07:43:19.426Z,100332.97
2018-04-30T07:45:46.000Z,100331.53
2018-04-30T07:48:13.085Z,100337.36
2018-04-30T07:50:40.025Z,100334.95
2018-04-30T07:53:06.767Z,100340.99
2018-04-30T07:55:33.389Z,100335.90
2018-04-30T07:58:00.573Z,100333.19
2018-04-30T08:00:27.276Z,100340.23
2018-04-30T08:02:53.925Z,100338.61
2018-04-30T08:05:20.550Z,100340.49
2018-04-30T08:07:47.193Z,100344.89
2018-04-30T08:10:13.722Z,100338.46
2018-04-30T08:12:46.111Z,100328.20
2018-04-30T08:15:12.725Z,100334.98
2018-04-30T08:17:39.361Z,100332.84
2018-04-30T08:20:05.972Z,100323.17
2018-04-30T08:22:36.390Z,100329.69
2018-04-30T08:25:02.862Z,100324.98
2018-04-30T08:27:29.519Z,100324.64
2018-04-30T08:29:56.277Z,100318.63
2018-04-30T08:32:24.184Z,100320.71
2018-04-30T08:34:50.701Z,100318.11
2018-04-30T08:37:17.270Z,100324.91
2018-04-30T08:39:43.879Z,100319.29
2018-04-30T08:42:14.052Z,100325.95
2018-04-30T08:44:40.708Z,100317.48
2018-04-30T08:47:07.375Z,100314.38
2018-04-30T08:49:33.930Z,100318.23
2018-04-30T08:52:05.378Z,100301.36
2018-04-30T08:54:31.910Z,100306.66
2018-04-30T08:56:58.834Z,100301.84
2018-04-30T08:59:25.506Z,100301.92
2018-04-30T09:01:52.065Z,100311.20
2018-04-30T09:04:18.620Z,100309.44
2018-04-30T09:06:45.242Z,100310.90
2018-04-30T09:09:12.047Z,100309.73
2018-04-30T09:11:38.695Z,100305.15
2018-04-30T09:14:08.389Z,100302.43
2018-04-30T09:16:35.004Z,100298.13
2018-04-30T09:19:01.922Z,100308.09
2018-04-30T09:21:28.513Z,100298.20
2018-04-30T09:23:56.368Z,100293.11
2018-04-30T09:26:22.858Z,100287.76
2018-04-30T09:28:49.462Z,100285.08
2018-04-30T09:31:16.080Z,100276.43
2018-04-30T09:33:45.656Z,100278.13
2018-04-30T09:36:12.211Z,100273.06
2018-04-30T09:38:38.774Z,100265.34
2018-04-30T09:41:05.325Z,100263.51
2018-04-30T09:43:34.965Z,100263.50
2018-04-30T09:46:01.512Z,100267.16
2018-04-30T09:48:28.269Z,100259.49
2018-04-30T09:50:54.797Z,100256.14
2018-04-30T09:53:26.218Z,100252.74
2018-04-30T09:55:52.761Z,100244.06
2018-04-30T09:58:19.900Z,100259.70
2018-04-30T10:00:46.562Z,100243.38
2018-04-30T10:03:19.336Z,100242.00
2018-04-30T10:05:46.109Z,100241.84
2018-04-30T10:08:12.686Z,100239.77
2018-04-30T10:10:39.297Z,100233.23
2018-04-30T10:13:06.014Z,100230.78
2018-04-30T10:15:32.620Z,100230.08
2018-04-30T10:17:59.370Z,100228.98
2018-04-30T10:20:25.990Z,100227.61
2018-04-30T10:22:57.791Z,100220.25
2018-04-30T10:25:24.381Z,100229.28
2018-04-30T10:27:51.001Z,100223.26
2018-04-30T10:30:17.874Z,100221.58
2018-04-30T10:32:50.381Z,100222.92
2018-04-30T10:35:16.987Z,100216.78
2018-04-30T10:37:44.131Z,100215.94
2018-04-30T10:40:10.645Z,100216.30
2018-04-30T10:42:37.484Z,100209.22
2018-04-30T10:45:04.037Z,100200.14
2018-04-30T10:47:30.616Z,100204.39
2018-04-30T10:49:57.259Z,100202.09
2018-04-30T10:52:27.508Z,100201.93
2018-04-30T10:54:54.277Z,100206.13
2018-04-30T10:57:20.767Z,100203.61
2018-04-30T10:59:47.566Z,100203.80
2018-04-30T11:02:19.427Z,100202.50
2018-04-30T11:04:46.114Z,100206.23
2018-04-30T11:07:12.673Z,100198.62
2018-04-30T11:09:39.266Z,100198.20
2018-04-30T11:12:09.402Z,100194.86
2018-04-30T11:14:36.094Z,100191.29
2018-04-30T11:17:02.667Z,100185.45
2018-04-30T11:19:29.252Z,100183.23
2018-04-30T11:21:57.349Z,100182.42
2018-04-30T11:24:25.277Z,100178.50
2018-04-30T11:26:53.032Z,100174.48
2018-04-30T11:29:19.734Z,100178.39
2018-04-30T11:31:46.561Z,100174.05
2018-04-30T11:34:13.301Z,100170.48
2018-04-30T11:36:40.236Z,100171.33
2018-04-30T11:39:06.939Z,100169.86
2018-04-30T11:41:33.554Z,100175.22
2018-04-30T11:44:00.332Z,100171.37
2018-04-30T11:46:27.030Z,100162.83
2018-04-30T11:48:53.686Z,100154.59
2018-04-30T11:51:27.962Z,100153.13
2018-04-30T11:53:54.705Z,100159.20
2018-04-30T11:56:21.301Z,100150.30
2018-04-30T11:58:48.037Z,100143.72
2018-04-30T12:01:14.634Z,100143.38
2018-04-30T12:03:41.342Z,100144.45
2018-04-30T12:06:07.978Z,100145.21
2018-04-30T12:08:34.725Z,100148.14
2018-04-30T12:11:01.362Z,100137.02
2018-04-30T12:13:27.965Z,100136.34
2018-04-30T12:15:54.537Z,100131.42
2018-04-30T12:18:21.237Z,100131.11
2018-04-30T12:20:47.744Z,100126.02
2018-04-30T12:23:14.422Z,100122.58
2018-04-30T12:25:41.085Z,100122.79
2018-04-30T12:28:07.549Z,100124.28
2018-04-30T12:30:34.194Z,100125.75
2018-04-30T12:33:01.741Z,100120.58
2018-04-30T12:35:28.396Z,100117.72
2018-04-30T12:37:55.001Z,100115.41
2018-04-30T12:40:21.731Z,100121.77
2018-04-30T12:42:55.482Z,100117.84
2018-04-30T12:45:22.113Z,100119.52
2018-04-30T12:47:48.675Z,100112.71
2018-04-30T12:50:15.305Z,100114.74
2018-04-30T12:52:42.254Z,100115.26
2018-04-30T12:55:08.713Z,100117.17
2018-04-30T12:57:35.294Z,100109.53
2018-04-30T13:00:01.961Z,100110.42
2018-04-30T13:02:29.727Z,100113.66
2018-04-30T13:04:56.211Z,100113.58
2018-04-30T13:07:22.836Z,100111.14
2018-04-30T13:09:49.385Z,100108.82
2018-04-30T13:12:20.397Z,100108.00
2018-04-30T13:14:47.275Z,100106.23
2018-04-30T13:17:13.805Z,100104.06
2018-04-30T13:19:40.479Z,100100.33
2018-04-30T13:22:10.458Z,100108.71
2018-04-30T13:24:37.078Z,100106.41
2018-04-30T13:27:03.709Z,100101.58
2018-04-30T13:29:30.368Z,100101.30
2018-04-30T13:31:58.007Z,100094.29
2018-04-30T13:34:24.699Z,100092.06
2018-04-30T13:36:51.354Z,100095.91
2018-04-30T13:39:17.951Z,100086.62
2018-04-30T13:41:44.742Z,100087.80
2018-04-30T13:44:11.515Z,100085.28
2018-04-30T13:46:37.984Z,100078.93
2018-04-30T13:49:04.604Z,100078.30
2018-04-30T13:51:35.769Z,100081.67
2018-04-30T13:54:02.401Z,100081.05
2018-04-30T13:56:28.940Z,100085.94
2018-04-30T13:58:55.532Z,100085.61
2018-04-30T14:01:25.917Z,100092.79
2018-04-30T14:03:52.553Z,100090.73
2018-04-30T14:06:19.104Z,100088.03
2018-04-30T14:08:45.772Z,100088.52
2018-04-30T14:11:12.721Z,100088.15
2018-04-30T14:13:39.395Z,100084.33
2018-04-30T14:16:05.884Z,100078.78
2018-04-30T14:18:32.438Z,100078.05
2018-04-30T14:20:58.957Z,100077.99
2018-04-30T14:23:25.542Z,100080.44
2018-04-30T14:25:52.339Z,100082.74
2018-04-30T14:28:18.824Z,100076.19
2018-04-30T14:30:45.395Z,100082.83
2018-04-30T14:33:19.705Z,100073.03
2018-04-30T14:35:46.354Z,100071.27
2018-04-30T14:38:13.063Z,100071.16
2018-04-30T14:40:39.722Z,100066.42
2018-04-30T14:43:06.438Z,100072.13
2018-04-30T14:45:33.010Z,100074.91
2018-04-30T14:47:59.618Z,100075.81
2018-04-30T14:50:26.288Z,100075.59
2018-04-30T14:52:53.066Z,100068.92
2018-04-30T14:55:19.722Z,100074.55
2018-04-30T14:57:46.385Z,100071.22
2018-04-30T15:00:12.877Z,100067.86
2018-04-30T15:02:40.517Z,100068.92
2018-04-30T15:05:06.978Z,100067.56
2018-04-30T15:07:33.685Z,100055.95
2018-04-30T15:10:00.211Z,100063.33
2018-04-30T15:12:28.719Z,100066.52
2018-04-30T15:14:55.342Z,100064.51
2018-04-30T15:17:21.994Z,100071.02
2018-04-30T15:19:48.593Z,100057.73
2018-04-30T15:22:22.557Z,100062.72
2018-04-30T15:24:49.222Z,100056.16
2018-04-30T15:27:16.193Z,100048.41
2018-04-30T15:29:42.801Z,100056.78
2018-04-30T15:32:17.341Z,100056.33
2018-04-30T15:34:44.095Z,100046.81
2018-04-30T15:37:10.789Z,100057.86
2018-04-30T15:39:37.357Z,100055.47
2018-04-30T15:42:17.952Z,100057.27
2018-04-30T15:44:44.626Z,100053.72
2018-04-30T15:47:11.359Z,100058.25
2018-04-30T15:49:37.971Z,100053.75
2018-04-30T15:52:05.722Z,100045.28
2018-04-30T15:54:32.375Z,100038.14
2018-04-30T15:56:58.868Z,100055.53
2018-04-30T15:59:25.473Z,100049.91
2018-04-30T16:01:58.046Z,100035.48
2018-04-30T16:04:24.631Z,100047.23
2018-04-30T16:06:51.155Z,100036.92
2018-04-30T16:09:17.846Z,100035.70
2018-04-30T16:11:48.924Z,100051.83
2018-04-30T16:14:15.551Z,100044.47
2018-04-30T16:16:42.387Z,100048.22
2018-04-30T16:19:08.994Z,100044.50
2018-04-30T16:21:35.817Z,100045.36
2018-04-30T16:24:02.367Z,100049.87
2018-04-30T16:26:29.014Z,100059.62
2018-04-30T16:28:55.750Z,100061.89
2018-04-30T16:31:26.234Z,100057.55
2018-04-30T16:33:52.976Z,100062.72
2018-04-30T16:36:19.666Z,100067.10
2018-04-30T16:38:46.729Z,100068.58
2018-04-30T16:41:13.418Z,100088.98
2018-04-30T16:43:40.175Z,100092.01
2018-04-30T16:46:06.935Z,100097.55
2018-04-30T16:48:33.601Z,100091.05
2018-04-30T16:51:01.454Z,100091.47
2018-04-30T16:53:27.983Z,100083.59
2018-04-30T16:55:54.617Z,100085.41
2018-04-30T16:58:22.237Z,100092.69
2018-04-30T17:00:49.972Z,100094.20
2018-04-30T17:03:16.601Z,100095.02
2018-04-30T17:05:43.221Z,100098.02
2018-04-30T17:08:09.821Z,100102.09
2018-04-30T17:10:39.636Z,100096.00
2018-04-30T17:13:06.358Z,100105.20
2018-04-30T17:15:32.992Z,100104.58
2018-04-30T17:18:00.260Z,100104.84
2018-04-30T17:20:26.858Z,100112.23
2018-04-30T17:22:53.364Z,100110.12
2018-04-30T17:25:20.085Z,100116.55
2018-04-30T17:27:46.716Z,100117.70
2018-04-30T17:30:13.290Z,100118.21
2018-04-30T17:32:43.918Z,100121.56
2018-04-30T17:35:10.509Z,100125.12
2018-04-30T17:37:37.675Z,100124.90
2018-04-30T17:40:04.298Z,100133.49
2018-04-30T17:42:36.011Z,100131.58
2018-04-30T17:45:02.480Z,100128.08
2018-04-30T17:47:29.151Z,100136.77
2018-04-30T17:49:55.689Z,100131.84
2018-04-30T17:52:32.532Z,100138.07
2018-04-30T17:54:59.762Z,100134.42
2018-04-30T17:57:26.281Z,100146.13
2018-04-30T17:59:53.531Z,100143.61
2018-04-30T18:02:24.413Z,100142.77
2018-04-30T18:04:51.093Z,100156.61
2018-04-30T18:07:17.775Z,100158.09
2018-04-30T18:09:44.601Z,100157.81
2018-04-30T18:12:14.587Z,100161.90
2018-04-30T18:14:41.126Z,100164.83
2018-04-30T18:17:07.779Z,100161.25
2018-04-30T18:19:34.356Z,100156.80
2018-04-30T18:22:03.925Z,100162.06
2018-04-30T18:24:30.529Z,100159.63
2018-04-30T18:26:57.124Z,100160.13
2018-04-30T18:29:24.320Z,100153.63
2018-04-30T18:31:56.619Z,100156.27
2018-04-30T18:34:23.251Z,100166.27
2018-04-30T18:36:51.350Z,100157.52
2018-04-30T18:39:17.975Z,100166.69
2018-04-30T18:41:50.240Z,100157.91
2018-04-30T18:44:16.928Z,100164.46
2018-04-30T18:46:43.525Z,100170.73
2018-04-30T18:49:10.155Z,100169.69
2018-04-30T18:51:37.882Z,100179.02
2018-04-30T18:54:05.442Z,100180.65
2018-04-30T18:56:32.244Z,100181.70
2018-04-30T18:58:58.830Z,100173.53
2018-04-30T19:01:31.193Z,100175.36
2018-04-30T19:03:57.806Z,100172.17
2018-04-30T19:06:24.369Z,100174.23
2018-04-30T19:08:50.895Z,100181.11
2018-04-30T19:11:22.941Z,100177.70
2018-04-30T19:13:50.150Z,100173.88
2018-04-30T19:16:16.787Z,100179.27
2018-04-30T19:18:43.446Z,100178.49
2018-04-30T19:21:11.121Z,100172.95
2018-04-30T19:23:38.910Z,100168.28
2018-04-30T19:26:05.507Z,100169.03
2018-04-30T19:28:32.081Z,100172.39
2018-04-30T19:30:58.658Z,100170.75
2018-04-30T19:33:25.142Z,100165.09
2018-04-30T19:35:51.566Z,100167.88
2018-04-30T19:38:18.364Z,100161.43
2018-04-30T19:40:47.425Z,100165.90
2018-04-30T19:43:14.101Z,100168.80
2018-04-30T19:45:40.770Z,100165.30
2018-04-30T19:48:07.289Z,100171.13
2018-04-30T19:50:35.889Z,100166.13
2018-04-30T19:53:02.817Z,100164.11
2018-04-30T19:55:29.574Z,100158.23
2018-04-30T19:57:56.210Z,100164.19
2018-04-30T20:00:23.111Z,100159.97
2018-04-30T20:02:49.769Z,100164.74
2018-04-30T20:05:16.401Z,100165.14
2018-04-30T20:07:42.992Z,100165.69
2018-04-30T20:10:13.075Z,100168.05
2018-04-30T20:12:39.673Z,100169.78
2018-04-30T20:15:06.349Z,100168.55
2018-04-30T20:17:32.937Z,100171.64
2018-04-30T20:19:59.526Z,100175.14
2018-04-30T20:22:26.040Z,100174.45
2018-04-30T20:24:52.711Z,100181.33
2018-04-30T20:27:19.392Z,100178.34
2018-04-30T20:29:45.954Z,100179.01
2018-04-30T20:32:12.570Z,100181.57
2018-04-30T20:34:39.171Z,100183.09
2018-04-30T20:37:05.689Z,100178.30
2018-04-30T20:39:33.094Z,100190.20
2018-04-30T20:41:59.936Z,100175.50
2018-04-30T20:44:26.949Z,100179.11
2018-04-30T20:46:53.558Z,100177.62
2018-04-30T20:49:20.169Z,100181.04
2018-04-30T20:51:52.288Z,100176.89
2018-04-30T20:54:18.785Z,100195.54
2018-04-30T20:56:45.921Z,100188.50
2018-04-30T20:59:13.517Z,100195.52
2018-04-30T21:01:46.248Z,100184.08
2018-04-30T21:04:12.901Z,100188.51
2018-04-30T21:06:39.357Z,100191.64
2018-04-30T21:09:12.985Z,100187.84
2018-04-30T21:11:42.895Z,100190.56
2018-04-30T21:14:18.658Z,100195.17
2018-04-30T21:16:45.287Z,100188.77
2018-04-30T21:19:11.805Z,100188.91
2018-04-30T21:21:42.349Z,100183.34
2018-04-30T21:24:09.020Z,100186.05
2018-04-30T21:26:35.572Z,100192.14
2018-04-30T21:29:02.234Z,100187.83
2018-04-30T21:31:30.079Z,100191.35
2018-04-30T21:33:56.610Z,100190.09
2018-04-30T21:36:23.143Z,100188.78
2018-04-30T21:38:49.860Z,100185.61
2018-04-30T21:41:18.684Z,100188.06
2018-04-30T21:43:45.468Z,100188.16
2018-04-30T21:46:12.129Z,100189.39
2018-04-30T21:48:38.739Z,100192.23
2018-04-30T21:51:12.661Z,100189.70
2018-04-30T21:53:39.337Z,100182.09
2018-04-30T21:56:06.102Z,100179.18
2018-04-30T21:58:33.746Z,100182.35
2018-04-30T22:01:06.085Z,100187.76
2018-04-30T22:03:32.713Z,100188.22
2018-04-30T22:05:59.342Z,100189.59
2018-04-30T22:08:25.921Z,100184.23
2018-04-30T22:10:56.212Z,100191.68
2018-04-30T22:13:23.293Z,100185.50
2018-04-30T22:15:49.917Z,100185.25
2018-04-30T22:18:16.509Z,100176.36
2018-04-30T22:20:50.086Z,100175.31
2018-04-30T22:23:16.791Z,100180.72
2018-04-30T22:25:43.412Z,100180.42
2018-04-30T22:28:10.108Z,100180.53
2018-04-30T22:30:37.961Z,100176.16
2018-04-30T22:33:04.698Z,100175.20
2018-04-30T22:35:31.461Z,100167.36
2018-04-30T22:37:57.981Z,100164.69
2018-04-30T22:40:28.494Z,100166.53
2018-04-30T22:42:55.182Z,100163.47
2018-04-30T22:45:21.812Z,100161.64
2018-04-30T22:47:48.369Z,100158.48
2018-04-30T22:50:18.162Z,100158.78
2018-04-30T22:52:44.724Z,100157.34
2018-04-30T22:55:11.318Z,100153.38
2018-04-30T22:57:37.985Z,100152.05
2018-04-30T23:00:09.421Z,100148.97
2018-04-30T23:02:35.847Z,100142.36
2018-04-30T23:05:02.418Z,100144.20
2018-04-30T23:07:29.161Z,100142.03
2018-04-30T23:09:59.941Z,100147.38
2018-04-30T23:12:26.592Z,100141.65
2018-04-30T23:14:53.217Z,100141.64
2018-04-30T23:17:20.220Z,100138.92
2018-04-30T23:19:47.880Z,100136.22
2018-04-30T23:22:14.529Z,100139.38
2018-04-30T23:24:42.317Z,100139.27
2018-04-30T23:27:10.385Z,100144.16
2018-04-30T23:29:37.118Z,100148.30
2018-04-30T23:32:03.710Z,100149.60
2018-04-30T23:34:30.340Z,100140.09
2018-04-30T23:36:56.995Z,100143.28
2018-04-30T23:39:23.598Z,100138.17
2018-04-30T23:42:07.028Z,100140.88
2018-04-30T23:44:34.865Z,100135.63
2018-04-30T23:47:02.101Z,100137.67
2018-04-30T23:49:28.794Z,100130.26
2018-04-30T23:51:55.652Z,100136.34
2018-04-30T23:54:22.265Z,100140.44
2018-04-30T23:56:48.945Z,100132.00
2018-04-30T23:59:15.659Z,100127.70
